createdAt,value
2017-12-24T00:00:01.735Z,51.63
2017-12-24T00:02:29.324Z,45.90
2017-12-24T00:04:56.968Z,49.00
2017-12-24T00:07:24.559Z,49.60
2017-12-24T00:09:52.142Z,49.07
2017-12-24T00:12:19.723Z,44.27
2017-12-24T00:14:47.304Z,43.90
2017-12-24T00:17:14.927Z,44.43
2017-12-24T00:19:42.607Z,42.13
2017-12-24T00:22:10.184Z,44.60
2017-12-24T00:24:37.780Z,42.37
2017-12-24T00:27:05.427Z,42.17
2017-12-24T00:29:33.007Z,45.30
2017-12-24T00:32:00.633Z,40.53
2017-12-24T00:34:28.245Z,46.67
2017-12-24T00:36:55.820Z,38.93
2017-12-24T00:39:23.399Z,41.23
2017-12-24T00:41:50.991Z,44.97
2017-12-24T00:44:18.606Z,39.37
2017-12-24T00:46:46.233Z,39.57
2017-12-24T00:49:13.818Z,39.20
2017-12-24T00:51:41.400Z,45.47
2017-12-24T00:54:08.987Z,34.73
2017-12-24T00:56:36.567Z,38.47
2017-12-24T00:59:04.189Z,34.67
2017-12-24T01:01:31.774Z,38.10
2017-12-24T01:03:59.395Z,37.67
2017-12-24T01:06:26.978Z,32.80
2017-12-24T01:08:54.599Z,37.30
2017-12-24T01:11:22.183Z,33.97
2017-12-24T01:13:49.804Z,33.07
2017-12-24T01:16:17.429Z,32.30
2017-12-24T01:18:45.057Z,34.23
2017-12-24T01:21:12.701Z,38.00
2017-12-24T01:23:40.254Z,32.10
2017-12-24T01:26:07.827Z,32.13
2017-12-24T01:28:35.403Z,34.67
2017-12-24T01:31:02.983Z,33.53
2017-12-24T01:33:30.567Z,28.93
2017-12-24T01:35:58.187Z,30.57
2017-12-24T01:38:26.822Z,29.20
2017-12-24T01:40:54.439Z,30.13
2017-12-24T01:43:22.036Z,27.03
2017-12-24T01:45:49.672Z,29.23
2017-12-24T01:48:17.875Z,25.53
2017-12-24T01:50:45.452Z,27.90
2017-12-24T01:53:13.031Z,26.93
2017-12-24T01:55:40.660Z,25.27
2017-12-24T01:58:08.254Z,25.20
2017-12-24T02:00:35.866Z,29.67
2017-12-24T02:03:03.526Z,26.73
2017-12-24T02:05:31.190Z,23.70
2017-12-24T02:07:58.856Z,27.63
2017-12-24T02:10:26.474Z,20.10
2017-12-24T02:12:54.366Z,23.40
2017-12-24T02:15:22.047Z,21.40
2017-12-24T02:17:49.671Z,26.77
2017-12-24T02:20:17.274Z,25.00
2017-12-24T02:22:44.899Z,23.80
2017-12-24T02:25:12.478Z,22.33
2017-12-24T02:27:40.107Z,25.40
2017-12-24T02:30:07.720Z,22.93
2017-12-24T02:32:35.306Z,22.57
2017-12-24T02:35:02.929Z,28.77
2017-12-24T02:37:30.519Z,19.67
2017-12-24T02:39:58.171Z,22.53
2017-12-24T02:42:25.760Z,20.67
2017-12-24T02:44:53.387Z,26.20
2017-12-24T02:47:21.002Z,23.90
2017-12-24T02:49:48.579Z,26.40
2017-12-24T02:52:16.171Z,23.02
2017-12-24T02:54:43.757Z,27.73
2017-12-24T02:57:11.335Z,26.03
2017-12-24T02:59:38.928Z,24.43
2017-12-24T03:02:06.514Z,22.63
2017-12-24T03:04:34.098Z,23.90
2017-12-24T03:07:01.752Z,25.23
2017-12-24T03:09:29.349Z,26.27
2017-12-24T03:11:56.930Z,21.77
2017-12-24T03:14:24.515Z,28.33
2017-12-24T03:16:52.095Z,25.43
2017-12-24T03:19:19.717Z,24.60
2017-12-24T03:21:47.295Z,26.77
2017-12-24T03:24:14.980Z,27.67
2017-12-24T03:26:42.611Z,27.53
2017-12-24T03:29:10.198Z,25.90
2017-12-24T03:31:37.779Z,24.13
2017-12-24T03:34:05.371Z,28.57
2017-12-24T03:36:32.995Z,32.13
2017-12-24T03:39:01.032Z,28.83
2017-12-24T03:41:28.622Z,26.60
2017-12-24T03:43:56.251Z,26.47
2017-12-24T03:46:23.903Z,35.53
2017-12-24T03:48:51.491Z,28.70
2017-12-24T03:51:19.171Z,27.70
2017-12-24T03:56:20.530Z,31.50
2017-12-24T03:58:48.122Z,32.10
2017-12-24T04:01:15.790Z,27.97
2017-12-24T04:03:43.374Z,44.83
2017-12-24T04:06:10.952Z,25.20
2017-12-24T04:08:38.535Z,29.83
2017-12-24T04:11:06.198Z,33.90
2017-12-24T04:13:33.841Z,25.97
2017-12-24T04:16:01.422Z,30.43
2017-12-24T04:18:29.009Z,33.77
2017-12-24T04:20:56.663Z,26.43
2017-12-24T04:23:24.314Z,28.27
2017-12-24T04:25:52.017Z,32.13
2017-12-24T04:28:19.644Z,29.07
2017-12-24T04:30:47.271Z,28.53
2017-12-24T04:33:14.971Z,29.10
2017-12-24T04:35:42.626Z,29.37
2017-12-24T04:38:10.291Z,33.07
2017-12-24T04:40:37.891Z,32.47
2017-12-24T04:43:05.474Z,35.30
2017-12-24T04:45:33.180Z,30.90
2017-12-24T04:48:01.764Z,34.13
2017-12-24T04:50:29.387Z,31.37
2017-12-24T04:52:57.002Z,32.00
2017-12-24T04:55:24.655Z,31.73
2017-12-24T04:57:52.324Z,30.03
2017-12-24T05:00:19.908Z,28.63
2017-12-24T05:02:47.547Z,31.77
2017-12-24T05:05:15.131Z,29.40
2017-12-24T05:07:42.770Z,32.97
2017-12-24T05:10:10.355Z,30.73
2017-12-24T05:12:37.940Z,26.00
2017-12-24T05:15:05.523Z,26.13
2017-12-24T05:17:33.107Z,30.23
2017-12-24T05:20:00.719Z,28.43
2017-12-24T05:22:28.314Z,21.60
2017-12-24T05:24:55.944Z,32.50
2017-12-24T05:27:23.531Z,24.73
2017-12-24T05:29:51.115Z,27.43
2017-12-24T05:32:18.698Z,23.77
2017-12-24T05:34:46.284Z,28.13
2017-12-24T05:37:14.011Z,27.80
2017-12-24T05:39:41.630Z,29.40
2017-12-24T05:42:09.324Z,27.77
2017-12-24T05:44:37.911Z,28.00
2017-12-24T05:47:05.532Z,22.77
2017-12-24T05:49:33.139Z,22.17
2017-12-24T05:52:00.766Z,25.20
2017-12-24T05:54:28.462Z,22.83
2017-12-24T05:56:56.228Z,26.30
2017-12-24T05:59:23.858Z,21.90
2017-12-24T06:01:51.475Z,22.43
2017-12-24T06:04:19.063Z,21.70
2017-12-24T06:06:46.652Z,26.63
2017-12-24T06:09:14.237Z,23.60
2017-12-24T06:11:41.830Z,25.73
2017-12-24T06:14:09.415Z,23.03
2017-12-24T06:16:37.003Z,24.27
2017-12-24T06:19:04.720Z,25.07
2017-12-24T06:21:32.303Z,21.27
2017-12-24T06:23:59.888Z,25.63
2017-12-24T06:26:27.470Z,25.83
2017-12-24T06:28:55.087Z,19.90
2017-12-24T06:31:22.673Z,23.13
2017-12-24T06:33:50.262Z,24.77
2017-12-24T06:36:17.847Z,24.30
2017-12-24T06:38:45.439Z,21.45
2017-12-24T06:41:13.030Z,28.90
2017-12-24T06:43:40.694Z,22.10
2017-12-24T06:46:08.291Z,22.33
2017-12-24T06:48:35.920Z,24.30
2017-12-24T06:51:03.547Z,24.70
2017-12-24T06:53:31.131Z,26.47
2017-12-24T06:55:58.727Z,26.40
2017-12-24T06:58:26.311Z,26.50
2017-12-24T07:00:54.600Z,24.97
2017-12-24T07:03:22.858Z,27.13
2017-12-24T07:05:50.477Z,23.57
2017-12-24T07:08:18.289Z,25.70
2017-12-24T07:10:45.910Z,31.17
2017-12-24T07:13:20.291Z,25.50
2017-12-24T07:15:47.879Z,28.33
2017-12-24T07:18:15.558Z,25.93
2017-12-24T07:20:43.143Z,21.00
2017-12-24T07:23:10.780Z,22.47
2017-12-24T07:25:39.228Z,24.37
2017-12-24T07:28:06.811Z,24.23
2017-12-24T07:30:34.429Z,27.90
2017-12-24T07:33:02.079Z,27.50
2017-12-24T07:35:29.668Z,25.53
2017-12-24T07:37:57.254Z,22.63
2017-12-24T07:40:24.883Z,23.43
2017-12-24T07:42:52.507Z,26.97
2017-12-24T07:45:20.160Z,27.17
2017-12-24T07:47:47.854Z,26.87
2017-12-24T07:50:15.447Z,25.30
2017-12-24T07:52:43.070Z,28.92
2017-12-24T07:55:10.700Z,23.23
2017-12-24T07:57:38.282Z,24.40
2017-12-24T08:00:05.865Z,27.30
2017-12-24T08:02:33.446Z,25.53
2017-12-24T08:05:01.056Z,29.43
2017-12-24T08:07:28.764Z,27.50
2017-12-24T08:09:56.347Z,25.87
2017-12-24T08:12:23.930Z,28.73
2017-12-24T08:14:53.479Z,26.73
2017-12-24T08:17:21.111Z,21.90
2017-12-24T08:19:48.704Z,24.20
2017-12-24T08:22:16.292Z,23.13
2017-12-24T08:24:43.885Z,25.03
2017-12-24T08:27:11.514Z,28.90
2017-12-24T08:29:39.139Z,31.90
2017-12-24T08:32:06.726Z,27.13
2017-12-24T08:34:34.307Z,29.73
2017-12-24T08:37:01.886Z,34.97
2017-12-24T08:39:29.467Z,24.20
2017-12-24T08:41:57.059Z,30.47
2017-12-24T08:44:24.719Z,24.60
2017-12-24T08:46:52.303Z,26.07
2017-12-24T08:49:19.924Z,31.50
2017-12-24T08:51:47.559Z,29.83
2017-12-24T08:54:15.145Z,26.43
2017-12-24T08:56:42.855Z,25.50
2017-12-24T08:59:10.566Z,26.20
2017-12-24T09:01:38.250Z,28.63
2017-12-24T09:04:05.883Z,26.00
2017-12-24T09:06:33.558Z,25.90
2017-12-24T09:09:01.147Z,28.93
2017-12-24T09:11:28.873Z,31.43
2017-12-24T09:13:56.456Z,27.27
2017-12-24T09:16:24.102Z,23.40
2017-12-24T09:18:51.687Z,22.07
2017-12-24T09:21:19.272Z,22.57
2017-12-24T09:23:46.859Z,23.13
2017-12-24T09:26:14.447Z,26.07
2017-12-24T09:28:42.030Z,28.03
2017-12-24T09:31:09.609Z,25.23
2017-12-24T09:33:37.239Z,28.70
2017-12-24T09:36:04.820Z,23.97
2017-12-24T09:38:32.411Z,23.33
2017-12-24T09:40:59.996Z,25.23
2017-12-24T09:43:27.584Z,26.60
2017-12-24T09:45:55.195Z,21.13
2017-12-24T09:48:22.784Z,27.50
2017-12-24T09:50:50.361Z,23.27
2017-12-24T09:53:17.979Z,23.00
2017-12-24T09:55:45.560Z,29.30
2017-12-24T09:58:13.142Z,24.60
2017-12-24T10:00:40.848Z,26.13
2017-12-24T10:03:08.454Z,25.67
2017-12-24T10:05:36.044Z,20.77
2017-12-24T10:08:03.627Z,21.67
2017-12-24T10:10:31.221Z,22.60
2017-12-24T10:12:58.806Z,19.83
2017-12-24T10:15:26.474Z,20.73
2017-12-24T10:17:54.078Z,20.10
2017-12-24T10:20:21.801Z,22.30
2017-12-24T10:22:49.459Z,24.87
2017-12-24T10:25:17.084Z,24.80
2017-12-24T10:27:44.688Z,22.70
2017-12-24T10:30:12.339Z,21.40
2017-12-24T10:32:39.931Z,21.80
2017-12-24T10:35:07.599Z,24.03
2017-12-24T10:37:35.287Z,23.90
2017-12-24T10:40:02.875Z,20.17
2017-12-24T10:42:30.477Z,25.40
2017-12-24T10:44:58.064Z,22.73
2017-12-24T10:47:25.687Z,19.23
2017-12-24T10:49:53.308Z,21.23
2017-12-24T10:52:20.932Z,22.63
2017-12-24T10:54:48.551Z,21.00
2017-12-24T10:57:16.235Z,21.23
2017-12-24T10:59:43.829Z,25.07
2017-12-24T11:02:11.563Z,21.70
2017-12-24T11:04:39.240Z,21.53
2017-12-24T11:07:07.555Z,23.33
2017-12-24T11:09:35.187Z,18.67
2017-12-24T11:12:02.775Z,23.87
2017-12-24T11:14:30.368Z,20.60
2017-12-24T11:16:58.008Z,18.43
2017-12-24T11:19:25.608Z,19.47
2017-12-24T11:21:53.227Z,22.97
2017-12-24T11:24:20.811Z,19.53
2017-12-24T11:26:48.411Z,23.47
2017-12-24T11:29:16.003Z,23.70
2017-12-24T11:31:43.579Z,18.43
2017-12-24T11:34:11.215Z,26.80
2017-12-24T11:36:38.835Z,21.97
2017-12-24T11:39:06.431Z,23.33
2017-12-24T11:41:34.047Z,27.53
2017-12-24T11:44:01.759Z,26.57
2017-12-24T11:46:29.384Z,30.83
2017-12-24T11:48:57.059Z,23.83
2017-12-24T11:51:24.685Z,21.30
2017-12-24T11:53:52.309Z,24.77
2017-12-24T11:56:19.895Z,25.03
2017-12-24T11:58:47.618Z,21.70
2017-12-24T12:01:15.217Z,21.80
2017-12-24T12:03:42.843Z,21.90
2017-12-24T12:06:10.432Z,21.23
2017-12-24T12:08:38.056Z,22.00
2017-12-24T12:11:05.648Z,21.40
2017-12-24T12:13:33.285Z,21.73
2017-12-24T12:16:00.901Z,21.80
2017-12-24T12:18:28.480Z,19.10
2017-12-24T12:20:56.159Z,20.53
2017-12-24T12:23:23.764Z,20.67
2017-12-24T12:25:51.488Z,17.17
2017-12-24T12:28:19.146Z,17.70
2017-12-24T12:30:46.776Z,16.47
2017-12-24T12:33:14.359Z,21.70
2017-12-24T12:35:41.948Z,21.33
2017-12-24T12:38:09.538Z,16.80
2017-12-24T12:40:37.118Z,19.30
2017-12-24T12:43:04.730Z,16.37
2017-12-24T12:45:32.375Z,21.70
2017-12-24T12:48:00.039Z,17.80
2017-12-24T12:50:27.703Z,13.20
2017-12-24T12:52:55.296Z,12.10
2017-12-24T12:55:22.881Z,15.77
2017-12-24T12:57:50.472Z,20.50
2017-12-24T13:00:19.843Z,12.67
2017-12-24T13:02:47.459Z,15.90
2017-12-24T13:05:15.168Z,14.80
2017-12-24T13:07:42.786Z,15.40
2017-12-24T13:10:10.444Z,17.40
2017-12-24T13:12:38.032Z,13.80
2017-12-24T13:15:05.644Z,13.40
2017-12-24T13:17:33.229Z,14.50
2017-12-24T13:20:00.840Z,14.90
2017-12-24T13:22:28.581Z,16.43
2017-12-24T13:24:56.223Z,13.20
2017-12-24T13:27:23.808Z,19.80
2017-12-24T13:29:51.444Z,16.30
2017-12-24T13:32:19.082Z,11.43
2017-12-24T13:34:46.660Z,15.73
2017-12-24T13:37:14.327Z,12.47
2017-12-24T13:39:42.029Z,12.67
2017-12-24T13:42:09.723Z,11.20
2017-12-24T13:44:37.367Z,14.00
2017-12-24T13:47:04.992Z,21.77
2017-12-24T13:49:32.580Z,14.47
2017-12-24T13:52:00.159Z,10.70
2017-12-24T13:54:27.747Z,12.90
2017-12-24T13:56:55.383Z,13.27
2017-12-24T13:59:23.039Z,12.73
2017-12-24T14:01:50.681Z,11.70
2017-12-24T14:04:18.363Z,11.57
2017-12-24T14:06:46.047Z,12.20
2017-12-24T14:09:13.663Z,15.47
2017-12-24T14:11:41.290Z,10.93
2017-12-24T14:14:08.960Z,11.67
2017-12-24T14:16:36.539Z,9.10
2017-12-24T14:19:04.115Z,8.10
2017-12-24T14:21:31.698Z,12.70
2017-12-24T14:23:59.285Z,10.13
2017-12-24T14:26:26.863Z,7.77
2017-12-24T14:28:54.535Z,8.43
2017-12-24T14:31:22.143Z,9.40
2017-12-24T14:33:49.759Z,8.73
2017-12-24T14:36:17.384Z,13.43
2017-12-24T14:38:44.968Z,13.13
2017-12-24T14:41:12.593Z,9.00
2017-12-24T14:43:40.213Z,8.03
2017-12-24T14:46:07.918Z,10.77
2017-12-24T14:48:35.491Z,8.40
2017-12-24T14:51:03.062Z,9.40
2017-12-24T14:53:30.675Z,6.97
2017-12-24T14:55:58.266Z,7.80
2017-12-24T14:58:25.879Z,5.60
2017-12-24T15:00:53.452Z,8.43
2017-12-24T15:03:21.066Z,9.97
2017-12-24T15:05:48.643Z,8.20
2017-12-24T15:08:17.257Z,7.53
2017-12-24T15:10:44.876Z,11.30
2017-12-24T15:13:12.463Z,19.00
2017-12-24T15:15:40.043Z,9.80
2017-12-24T15:18:07.617Z,7.43
2017-12-24T15:20:35.244Z,11.20
2017-12-24T15:23:02.861Z,8.40
2017-12-24T15:25:30.484Z,8.10
2017-12-24T15:27:58.244Z,6.60
2017-12-24T15:30:25.864Z,9.20
2017-12-24T15:32:53.480Z,5.13
2017-12-24T15:35:21.064Z,6.17
2017-12-24T15:37:48.653Z,8.20
2017-12-24T15:40:16.519Z,6.53
2017-12-24T15:42:44.099Z,7.17
2017-12-24T15:45:11.849Z,5.90
2017-12-24T15:47:39.448Z,8.17
2017-12-24T15:50:07.112Z,8.47
2017-12-24T15:52:34.766Z,5.90
2017-12-24T15:55:02.428Z,5.07
2017-12-24T15:57:30.096Z,4.90
2017-12-24T15:59:57.708Z,7.20
2017-12-24T16:02:25.291Z,6.73
2017-12-24T16:04:52.880Z,4.67
2017-12-24T16:07:20.471Z,4.37
2017-12-24T16:09:48.049Z,6.57
2017-12-24T16:12:15.679Z,4.17
2017-12-24T16:14:43.256Z,5.30
2017-12-24T16:17:10.828Z,4.73
2017-12-24T16:19:38.404Z,3.27
2017-12-24T16:22:05.993Z,4.30
2017-12-24T16:24:33.682Z,2.90
2017-12-24T16:27:01.259Z,4.07
2017-12-24T16:29:28.831Z,3.90
2017-12-24T16:31:56.408Z,3.90
2017-12-24T16:34:23.978Z,3.37
2017-12-24T16:36:51.556Z,4.10
2017-12-24T16:39:19.167Z,3.43
2017-12-24T16:41:46.815Z,3.30
2017-12-24T16:44:14.411Z,3.23
2017-12-24T16:46:42.064Z,4.13
2017-12-24T16:49:09.737Z,2.77
2017-12-24T16:51:37.379Z,2.97
2017-12-24T16:54:05.011Z,3.50
2017-12-24T16:56:32.587Z,2.87
2017-12-24T16:59:00.447Z,2.77
2017-12-24T17:01:28.155Z,2.53
2017-12-24T17:03:55.764Z,3.60
2017-12-24T17:06:23.359Z,3.00
2017-12-24T17:08:50.980Z,5.90
2017-12-24T17:11:18.555Z,3.70
2017-12-24T17:13:46.140Z,4.90
2017-12-24T17:16:13.721Z,5.40
2017-12-24T17:18:41.301Z,3.70
2017-12-24T17:21:08.897Z,2.70
2017-12-24T17:23:36.480Z,2.30
2017-12-24T17:26:04.093Z,3.93
2017-12-24T17:28:31.687Z,2.50
2017-12-24T17:30:59.317Z,2.70
2017-12-24T17:33:26.892Z,2.00
2017-12-24T17:35:54.517Z,2.40
2017-12-24T17:38:22.098Z,2.23
2017-12-24T17:40:49.676Z,2.80
2017-12-24T17:43:17.251Z,2.80
2017-12-24T17:45:44.836Z,2.60
2017-12-24T17:48:12.413Z,2.83
2017-12-24T17:50:40.030Z,3.20
2017-12-24T17:53:07.618Z,2.60
2017-12-24T17:55:35.190Z,2.57
2017-12-24T17:58:03.680Z,2.20
2017-12-24T18:00:31.302Z,2.47
2017-12-24T18:02:58.959Z,3.50
2017-12-24T18:05:26.591Z,2.97
2017-12-24T18:07:54.183Z,3.07
2017-12-24T18:10:21.796Z,2.30
2017-12-24T18:12:49.442Z,2.90
2017-12-24T18:15:17.074Z,6.10
2017-12-24T18:17:44.736Z,2.73
2017-12-24T18:20:12.371Z,2.83
2017-12-24T18:22:40.075Z,6.83
2017-12-24T18:25:07.735Z,2.93
2017-12-24T18:27:35.352Z,5.20
2017-12-24T18:30:02.975Z,2.73
2017-12-24T18:32:30.558Z,2.47
2017-12-24T18:34:58.180Z,4.67
2017-12-24T18:37:25.827Z,5.90
2017-12-24T18:39:53.416Z,4.27
2017-12-24T18:42:21.211Z,3.73
2017-12-24T18:44:48.787Z,3.43
2017-12-24T18:47:16.420Z,4.77
2017-12-24T18:49:44.036Z,2.43
2017-12-24T18:52:11.743Z,3.13
2017-12-24T18:54:39.367Z,4.77
2017-12-24T18:57:06.947Z,4.63
2017-12-24T18:59:34.584Z,4.00
2017-12-24T19:02:03.084Z,3.17
2017-12-24T19:04:30.750Z,4.10
2017-12-24T19:06:58.456Z,6.33
2017-12-24T19:09:26.168Z,5.20
2017-12-24T19:11:53.779Z,6.10
2017-12-24T19:14:21.364Z,4.23
2017-12-24T19:16:48.943Z,4.63
2017-12-24T19:19:16.648Z,4.37
2017-12-24T19:21:44.227Z,4.60
2017-12-24T19:24:11.817Z,6.77
2017-12-24T19:26:39.495Z,5.03
2017-12-24T19:29:07.067Z,5.17
2017-12-24T19:31:34.728Z,6.77
2017-12-24T19:34:02.437Z,5.17
2017-12-24T19:36:30.043Z,4.93
2017-12-24T19:38:57.631Z,5.50
2017-12-24T19:41:25.226Z,5.53
2017-12-24T19:43:52.843Z,5.80
2017-12-24T19:46:20.553Z,5.20
2017-12-24T19:48:48.140Z,6.47
2017-12-24T19:51:15.732Z,7.07
2017-12-24T19:53:43.397Z,6.77
2017-12-24T19:56:11.714Z,6.97
2017-12-24T19:58:39.380Z,6.43
2017-12-24T20:01:06.964Z,7.83
2017-12-24T20:03:34.575Z,6.13
2017-12-24T20:06:02.199Z,7.50
2017-12-24T20:08:29.804Z,7.10
2017-12-24T20:10:57.406Z,11.57
2017-12-24T20:13:24.996Z,7.40
2017-12-24T20:15:52.584Z,6.73
2017-12-24T20:18:20.230Z,7.87
2017-12-24T20:20:47.812Z,6.83
2017-12-24T20:23:15.443Z,10.50
2017-12-24T20:25:43.951Z,7.83
2017-12-24T20:28:11.577Z,8.23
2017-12-24T20:30:39.155Z,6.70
2017-12-24T20:33:06.832Z,10.80
2017-12-24T20:35:34.411Z,9.73
2017-12-24T20:38:02.004Z,10.07
2017-12-24T20:40:29.703Z,8.10
2017-12-24T20:42:57.299Z,7.03
2017-12-24T20:45:24.926Z,7.47
2017-12-24T20:47:52.536Z,13.10
2017-12-24T20:50:20.919Z,8.97
2017-12-24T20:52:48.510Z,10.60
2017-12-24T20:55:16.192Z,8.17
2017-12-24T20:57:44.571Z,9.43
2017-12-24T21:00:12.156Z,11.57
2017-12-24T21:02:39.792Z,11.00
2017-12-24T21:05:07.371Z,10.53
2017-12-24T21:07:34.987Z,9.37
2017-12-24T21:10:02.569Z,10.63
2017-12-24T21:12:30.393Z,9.20
2017-12-24T21:14:58.056Z,10.20
2017-12-24T21:17:25.632Z,8.87
2017-12-24T21:19:53.212Z,8.87
2017-12-24T21:22:20.895Z,8.23
2017-12-24T21:24:48.520Z,11.40
2017-12-24T21:29:43.707Z,8.80
2017-12-24T21:32:11.301Z,9.80
2017-12-24T21:34:38.894Z,8.23
2017-12-24T21:37:06.601Z,10.33
2017-12-24T21:39:34.227Z,9.10
2017-12-24T21:42:01.924Z,11.20
2017-12-24T21:44:29.512Z,12.33
2017-12-24T21:46:57.153Z,10.00
2017-12-24T21:49:24.888Z,12.47
2017-12-24T21:51:52.514Z,9.30
2017-12-24T21:54:20.217Z,7.27
2017-12-24T21:56:47.810Z,9.97
2017-12-24T21:59:15.426Z,8.03
2017-12-24T22:01:43.027Z,7.80
2017-12-24T22:04:10.644Z,8.60
2017-12-24T22:06:38.263Z,10.40
2017-12-24T22:09:05.883Z,10.50
2017-12-24T22:11:33.539Z,6.67
2017-12-24T22:14:01.229Z,6.40
2017-12-24T22:16:28.848Z,7.70
2017-12-24T22:18:57.034Z,7.10
2017-12-24T22:21:24.707Z,7.90
2017-12-24T22:23:52.400Z,9.03
2017-12-24T22:26:20.064Z,6.27
2017-12-24T22:28:47.652Z,9.47
2017-12-24T22:31:15.236Z,7.60
2017-12-24T22:33:42.812Z,5.97
2017-12-24T22:36:10.430Z,7.60
2017-12-24T22:38:38.014Z,7.80
2017-12-24T22:41:05.600Z,6.50
2017-12-24T22:43:33.252Z,9.00
2017-12-24T22:46:00.923Z,6.53
2017-12-24T22:48:28.533Z,6.23
2017-12-24T22:50:56.147Z,4.93
2017-12-24T22:53:23.732Z,5.77
2017-12-24T22:55:51.379Z,6.60
2017-12-24T22:58:18.995Z,6.23
2017-12-24T23:00:46.570Z,8.43
2017-12-24T23:03:14.142Z,6.70
2017-12-24T23:05:41.723Z,4.07
2017-12-24T23:08:09.298Z,6.63
2017-12-24T23:10:36.871Z,6.93
2017-12-24T23:13:04.456Z,6.43
2017-12-24T23:15:32.045Z,6.57
2017-12-24T23:17:59.670Z,5.90
2017-12-24T23:20:27.286Z,6.90
2017-12-24T23:22:54.999Z,6.00
2017-12-24T23:25:22.662Z,8.00
2017-12-24T23:27:50.371Z,4.87
2017-12-24T23:30:17.945Z,7.40
2017-12-24T23:32:45.528Z,5.80
2017-12-24T23:35:13.106Z,5.97
2017-12-24T23:37:40.718Z,5.80
2017-12-24T23:40:08.310Z,6.73
2017-12-24T23:42:35.896Z,10.53
2017-12-24T23:45:03.478Z,4.43
2017-12-24T23:47:31.293Z,5.93
2017-12-24T23:49:58.912Z,5.63
2017-12-24T23:52:26.490Z,5.10
2017-12-24T23:54:54.076Z,4.97
2017-12-24T23:57:21.647Z,6.70
2017-12-24T23:59:49.306Z,5.40
